UAE003 YSSY-YSSY
Flight info
| Callsign | UAE003 |
|---|---|
| Flight time | 0h 26m |
| Altitude | 12000 |
| Route | OPTIC |
| Aircraft | A388/J-SADE2E3FGHIJ3J4J5M1RWXY/LB1D1 |
Departure
| Time | 2026-04-20 04:03 |
|---|---|
| Airport | Sydney Kingsford Smith International Airport (YSSY) |
Arrival
| Time | 2026-04-20 04:30 |
|---|---|
| Airport | Sydney Kingsford Smith International Airport (YSSY) |
| Time | Latitude | Longitude | Altitude | Speed | Heading |
|---|---|---|---|---|---|
| 2026-04-20 03:39 | -33.94498 | 151.17068 | 35 ft | 0 kts | 164° |
| 2026-04-20 03:48 | -33.94493 | 151.17067 | 35 ft | 3 kts | 165° |
| 2026-04-20 03:49 | -33.94467 | 151.17059 | 61 ft | 4 kts | 169° |
| 2026-04-20 03:49 | -33.94440 | 151.17054 | 34 ft | 4 kts | 170° |
| 2026-04-20 03:49 | -33.94415 | 151.17046 | 34 ft | 4 kts | 151° |
| 2026-04-20 03:49 | -33.94398 | 151.17028 | 34 ft | 4 kts | 116° |
| 2026-04-20 03:50 | -33.94397 | 151.17001 | 32 ft | 4 kts | 65° |
| 2026-04-20 03:50 | -33.94404 | 151.16981 | 31 ft | 1 kts | 74° |
| 2026-04-20 03:54 | -33.94404 | 151.16983 | 35 ft | 2 kts | 74° |
| 2026-04-20 03:54 | -33.94393 | 151.17031 | 35 ft | 9 kts | 74° |
| 2026-04-20 03:55 | -33.94373 | 151.17114 | 35 ft | 3 kts | 75° |
| 2026-04-20 03:55 | -33.94367 | 151.17144 | 35 ft | 7 kts | 75° |
| 2026-04-20 03:55 | -33.94350 | 151.17218 | 35 ft | 11 kts | 75° |
| 2026-04-20 03:55 | -33.94304 | 151.17302 | 35 ft | 14 kts | 22° |
| 2026-04-20 03:56 | -33.94192 | 151.17285 | 34 ft | 21 kts | 344° |
| 2026-04-20 03:56 | -33.94031 | 151.17240 | 34 ft | 22 kts | 349° |
| 2026-04-20 03:56 | -33.93855 | 151.17193 | 34 ft | 29 kts | 345° |
| 2026-04-20 03:56 | -33.93644 | 151.17137 | 34 ft | 31 kts | 347° |
| 2026-04-20 03:57 | -33.93500 | 151.17100 | 34 ft | 8 kts | 351° |
| 2026-04-20 03:57 | -33.93452 | 151.17123 | 34 ft | 8 kts | 60° |
| 2026-04-20 03:57 | -33.93448 | 151.17133 | 34 ft | 0 kts | 70° |
| 2026-04-20 04:02 | -33.93440 | 151.17159 | 34 ft | 8 kts | 71° |
| 2026-04-20 04:02 | -33.93425 | 151.17242 | 32 ft | 12 kts | 96° |
| 2026-04-20 04:02 | -33.93471 | 151.17299 | 32 ft | 9 kts | 166° |
| 2026-04-20 04:02 | -33.93474 | 151.17300 | 32 ft | 0 kts | 167° |
| 2026-04-20 04:03 | -33.93573 | 151.17328 | 32 ft | 53 kts | 167° |
| 2026-04-20 04:03 | -33.94237 | 151.17497 | 37 ft | 133 kts | 168° |
| 2026-04-20 04:03 | -33.95192 | 151.17748 | 665 ft | 136 kts | 169° |
| 2026-04-20 04:04 | -33.96118 | 151.17990 | 1448 ft | 139 kts | 169° |
| 2026-04-20 04:04 | -33.97070 | 151.18238 | 2194 ft | 145 kts | 169° |
| 2026-04-20 04:04 | -33.98099 | 151.18542 | 2688 ft | 163 kts | 159° |
| 2026-04-20 04:04 | -33.99007 | 151.19492 | 3127 ft | 184 kts | 133° |
| 2026-04-20 04:05 | -33.99805 | 151.20811 | 3394 ft | 209 kts | 129° |
| 2026-04-20 04:05 | -34.00681 | 151.22350 | 3984 ft | 231 kts | 129° |
| 2026-04-20 04:05 | -34.01640 | 151.24019 | 4638 ft | 253 kts | 129° |
| 2026-04-20 04:05 | -34.02654 | 151.25755 | 5801 ft | 256 kts | 129° |
| 2026-04-20 04:06 | -34.03711 | 151.27541 | 6800 ft | 264 kts | 129° |
| 2026-04-20 04:06 | -34.04790 | 151.29353 | 7891 ft | 267 kts | 129° |
| 2026-04-20 04:06 | -34.05881 | 151.31180 | 9009 ft | 270 kts | 129° |
| 2026-04-20 04:06 | -34.06993 | 151.33040 | 10092 ft | 275 kts | 130° |
| 2026-04-20 04:07 | -34.08129 | 151.34938 | 10917 ft | 288 kts | 130° |
| 2026-04-20 04:07 | -34.09352 | 151.36971 | 11337 ft | 311 kts | 129° |
| 2026-04-20 04:07 | -34.10663 | 151.39157 | 11721 ft | 331 kts | 129° |
| 2026-04-20 04:07 | -34.12023 | 151.41439 | 12241 ft | 338 kts | 129° |
| 2026-04-20 04:08 | -34.13429 | 151.43800 | 12268 ft | 353 kts | 129° |
| 2026-04-20 04:08 | -34.14879 | 151.46239 | 12255 ft | 358 kts | 129° |
| 2026-04-20 04:08 | -34.16329 | 151.48680 | 12259 ft | 358 kts | 129° |
| 2026-04-20 04:08 | -34.17782 | 151.51128 | 12252 ft | 358 kts | 129° |
| 2026-04-20 04:09 | -34.19236 | 151.53575 | 12254 ft | 358 kts | 129° |
| 2026-04-20 04:09 | -34.20686 | 151.56017 | 12253 ft | 358 kts | 129° |
| 2026-04-20 04:09 | -34.22134 | 151.58456 | 12253 ft | 358 kts | 129° |
| 2026-04-20 04:09 | -34.23588 | 151.60905 | 12253 ft | 358 kts | 129° |
| 2026-04-20 04:10 | -34.25044 | 151.63361 | 12271 ft | 359 kts | 129° |
| 2026-04-20 04:10 | -34.26481 | 151.65819 | 12253 ft | 359 kts | 126° |
| 2026-04-20 04:10 | -34.27460 | 151.68625 | 12253 ft | 367 kts | 107° |
| 2026-04-20 04:10 | -34.27629 | 151.71728 | 12247 ft | 376 kts | 88° |
| 2026-04-20 04:11 | -34.26960 | 151.74774 | 12250 ft | 384 kts | 69° |
| 2026-04-20 04:11 | -34.25497 | 151.77485 | 12250 ft | 390 kts | 50° |
| 2026-04-20 04:11 | -34.23345 | 151.79568 | 12249 ft | 395 kts | 31° |
| 2026-04-20 04:11 | -34.20815 | 151.80732 | 12252 ft | 396 kts | 12° |
| 2026-04-20 04:12 | -34.18073 | 151.80916 | 12242 ft | 395 kts | 353° |
| 2026-04-20 04:12 | -34.15431 | 151.80081 | 12248 ft | 392 kts | 334° |
| 2026-04-20 04:12 | -34.13164 | 151.78327 | 12250 ft | 386 kts | 315° |
| 2026-04-20 04:12 | -34.11493 | 151.75847 | 12252 ft | 379 kts | 296° |
| 2026-04-20 04:13 | -34.10581 | 151.72907 | 12246 ft | 371 kts | 277° |
| 2026-04-20 04:13 | -34.10407 | 151.69836 | 12248 ft | 366 kts | 265° |
| 2026-04-20 04:13 | -34.10484 | 151.66777 | 12248 ft | 365 kts | 263° |
| 2026-04-20 04:13 | -34.10606 | 151.63716 | 12248 ft | 364 kts | 263° |
| 2026-04-20 04:14 | -34.10684 | 151.60682 | 12185 ft | 359 kts | 270° |
| 2026-04-20 04:14 | -34.10152 | 151.57764 | 12021 ft | 351 kts | 283° |
| 2026-04-20 04:14 | -34.09443 | 151.54978 | 11534 ft | 345 kts | 283° |
| 2026-04-20 04:14 | -34.08741 | 151.52218 | 11310 ft | 345 kts | 283° |
| 2026-04-20 04:15 | -34.08046 | 151.49488 | 11263 ft | 345 kts | 283° |
| 2026-04-20 04:15 | -34.07347 | 151.46711 | 11259 ft | 345 kts | 283° |
| 2026-04-20 04:15 | -34.06642 | 151.43933 | 11264 ft | 346 kts | 283° |
| 2026-04-20 04:15 | -34.05944 | 151.41173 | 11137 ft | 343 kts | 283° |
| 2026-04-20 04:16 | -34.05241 | 151.38430 | 10679 ft | 341 kts | 283° |
| 2026-04-20 04:16 | -34.04554 | 151.35705 | 10228 ft | 339 kts | 283° |
| 2026-04-20 04:16 | -34.03867 | 151.32985 | 10030 ft | 340 kts | 283° |
| 2026-04-20 04:16 | -34.03185 | 151.30258 | 9999 ft | 340 kts | 283° |
| 2026-04-20 04:17 | -34.02513 | 151.27527 | 10000 ft | 340 kts | 283° |
| 2026-04-20 04:17 | -34.01843 | 151.24803 | 9942 ft | 338 kts | 283° |
| 2026-04-20 04:17 | -34.01179 | 151.22100 | 9513 ft | 336 kts | 283° |
| 2026-04-20 04:17 | -34.00520 | 151.19413 | 8905 ft | 333 kts | 283° |
| 2026-04-20 04:18 | -33.99865 | 151.16744 | 8261 ft | 331 kts | 283° |
| 2026-04-20 04:18 | -33.99214 | 151.14097 | 7658 ft | 327 kts | 283° |
| 2026-04-20 04:18 | -33.98568 | 151.11476 | 7046 ft | 324 kts | 283° |
| 2026-04-20 04:18 | -33.97930 | 151.08889 | 6423 ft | 321 kts | 283° |
| 2026-04-20 04:19 | -33.97306 | 151.06361 | 6057 ft | 319 kts | 283° |
| 2026-04-20 04:19 | -33.96674 | 151.03797 | 5677 ft | 317 kts | 283° |
| 2026-04-20 04:19 | -33.96080 | 151.01299 | 5192 ft | 307 kts | 282° |
| 2026-04-20 04:19 | -33.95460 | 150.98798 | 4439 ft | 314 kts | 288° |
| 2026-04-20 04:20 | -33.94254 | 150.96600 | 4136 ft | 317 kts | 313° |
| 2026-04-20 04:20 | -33.92412 | 150.95177 | 4003 ft | 321 kts | 339° |
| 2026-04-20 04:20 | -33.90208 | 150.94747 | 4002 ft | 323 kts | 1° |
| 2026-04-20 04:20 | -33.87957 | 150.94862 | 4000 ft | 324 kts | 2° |
| 2026-04-20 04:21 | -33.85708 | 150.94982 | 3999 ft | 324 kts | 2° |
| 2026-04-20 04:21 | -33.83466 | 150.95107 | 3997 ft | 322 kts | 3° |
| 2026-04-20 04:21 | -33.81236 | 150.95228 | 3997 ft | 319 kts | 2° |
| 2026-04-20 04:21 | -33.79014 | 150.95335 | 3934 ft | 321 kts | 2° |
| 2026-04-20 04:22 | -33.76796 | 150.95441 | 3722 ft | 317 kts | 2° |
| 2026-04-20 04:22 | -33.74591 | 150.95541 | 3287 ft | 316 kts | 3° |
| 2026-04-20 04:22 | -33.72404 | 150.95624 | 3049 ft | 312 kts | 2° |
| 2026-04-20 04:22 | -33.70232 | 150.95761 | 2988 ft | 312 kts | 9° |
| 2026-04-20 04:23 | -33.68214 | 150.96647 | 2964 ft | 307 kts | 36° |
| 2026-04-20 04:23 | -33.66715 | 150.98403 | 3009 ft | 302 kts | 60° |
| 2026-04-20 04:23 | -33.65950 | 151.00745 | 2998 ft | 304 kts | 81° |
| 2026-04-20 04:23 | -33.65640 | 151.02921 | 2997 ft | 302 kts | 83° |
| 2026-04-20 04:24 | -33.65262 | 151.05408 | 2993 ft | 303 kts | 84° |
| 2026-04-20 04:24 | -33.65265 | 151.07895 | 2994 ft | 296 kts | 106° |
| 2026-04-20 04:24 | -33.66115 | 151.10085 | 3003 ft | 288 kts | 132° |
| 2026-04-20 04:24 | -33.67654 | 151.11566 | 3002 ft | 283 kts | 153° |
| 2026-04-20 04:25 | -33.69369 | 151.12722 | 2975 ft | 279 kts | 152° |
| 2026-04-20 04:25 | -33.71004 | 151.13827 | 2994 ft | 261 kts | 153° |
| 2026-04-20 04:25 | -33.72537 | 151.14870 | 3002 ft | 242 kts | 153° |
| 2026-04-20 04:25 | -33.73988 | 151.15869 | 2996 ft | 244 kts | 152° |
| 2026-04-20 04:26 | -33.75473 | 151.16878 | 2997 ft | 242 kts | 155° |
| 2026-04-20 04:26 | -33.77054 | 151.17340 | 3003 ft | 237 kts | 184° |
| 2026-04-20 04:26 | -33.78648 | 151.16967 | 3005 ft | 236 kts | 193° |
| 2026-04-20 04:26 | -33.80270 | 151.16505 | 3000 ft | 236 kts | 192° |
| 2026-04-20 04:27 | -33.81772 | 151.16053 | 2793 ft | 209 kts | 193° |
| 2026-04-20 04:27 | -33.83020 | 151.15654 | 2671 ft | 166 kts | 194° |
| 2026-04-20 04:27 | -33.84126 | 151.15398 | 2423 ft | 160 kts | 188° |
| 2026-04-20 04:27 | -33.85235 | 151.15321 | 2018 ft | 160 kts | 179° |
| 2026-04-20 04:28 | -33.86342 | 151.15451 | 1695 ft | 157 kts | 171° |
| 2026-04-20 04:28 | -33.87396 | 151.15739 | 1411 ft | 154 kts | 169° |
| 2026-04-20 04:28 | -33.88487 | 151.16042 | 1119 ft | 164 kts | 169° |
| 2026-04-20 04:28 | -33.89578 | 151.16315 | 872 ft | 155 kts | 170° |
| 2026-04-20 04:29 | -33.90652 | 151.16582 | 642 ft | 162 kts | 171° |
| 2026-04-20 04:29 | -33.91749 | 151.16863 | 364 ft | 157 kts | 169° |
| 2026-04-20 04:29 | -33.92817 | 151.17134 | 124 ft | 157 kts | 170° |
| 2026-04-20 04:29 | -33.93748 | 151.17385 | 32 ft | 116 kts | 168° |
| 2026-04-20 04:30 | -33.94292 | 151.17509 | 36 ft | 48 kts | 169° |
| 2026-04-20 04:30 | -33.94586 | 151.17588 | 35 ft | 25 kts | 168° |
| 2026-04-20 04:30 | -33.94724 | 151.17591 | 35 ft | 14 kts | 217° |
| 2026-04-20 04:30 | -33.94743 | 151.17504 | 35 ft | 11 kts | 283° |
| 2026-04-20 04:31 | -33.94696 | 151.17427 | 35 ft | 14 kts | 326° |
| 2026-04-20 04:31 | -33.94589 | 151.17382 | 35 ft | 20 kts | 347° |
| 2026-04-20 04:31 | -33.94440 | 151.17347 | 36 ft | 9 kts | 349° |
| 2026-04-20 04:31 | -33.94388 | 151.17334 | 35 ft | 11 kts | 343° |
| 2026-04-20 04:32 | -33.94338 | 151.17264 | 35 ft | 12 kts | 264° |
| 2026-04-20 04:32 | -33.94362 | 151.17159 | 35 ft | 14 kts | 252° |
| 2026-04-20 04:32 | -33.94392 | 151.17044 | 35 ft | 14 kts | 252° |
| 2026-04-20 04:32 | -33.94421 | 151.16974 | 35 ft | 4 kts | 195° |
| 2026-04-20 04:33 | -33.94436 | 151.16972 | 35 ft | 3 kts | 178° |
| 2026-04-20 04:33 | -33.94469 | 151.16977 | 35 ft | 4 kts | 164° |
| 2026-04-20 04:33 | -33.94502 | 151.16989 | 35 ft | 5 kts | 164° |
| 2026-04-20 04:33 | -33.94510 | 151.16992 | 35 ft | 0 kts | 164° |